createdAt,value
2023-03-25T00:18:05.836Z,6.35
2023-03-25T00:20:48.786Z,6.29
2023-03-25T00:23:19.054Z,6.42
2023-03-25T00:25:50.209Z,6.43
2023-03-25T00:28:19.998Z,6.55
2023-03-25T00:30:49.391Z,6.45
2023-03-25T00:33:26.869Z,6.51
2023-03-25T00:35:59.035Z,6.36
2023-03-25T00:38:42.915Z,6.36
2023-03-25T00:41:28.751Z,6.36
2023-03-25T00:43:59.609Z,6.54
2023-03-25T00:46:31.843Z,6.64
2023-03-25T00:49:02.735Z,6.71
2023-03-25T00:51:31.403Z,6.66
2023-03-25T00:54:08.712Z,6.62
2023-03-25T00:56:35.815Z,6.58
2023-03-25T00:59:03.367Z,6.77
2023-03-25T01:01:30.433Z,6.76
2023-03-25T01:04:00.166Z,6.80
2023-03-25T01:06:44.170Z,6.86
2023-03-25T01:09:17.083Z,6.90
2023-03-25T01:11:51.282Z,6.88
2023-03-25T01:14:32.171Z,6.81
2023-03-25T01:17:03.007Z,6.68
2023-03-25T01:19:29.891Z,6.57
2023-03-25T01:22:14.313Z,6.58
2023-03-25T01:24:51.673Z,6.68
2023-03-25T01:27:18.317Z,6.81
2023-03-25T01:30:00.807Z,6.87
2023-03-25T01:32:29.365Z,6.99
2023-03-25T01:34:56.450Z,7.05
2023-03-25T01:37:25.722Z,7.06
2023-03-25T01:40:00.633Z,7.06
2023-03-25T01:42:36.846Z,7.06
2023-03-25T01:45:27.505Z,7.10
2023-03-25T01:48:36.092Z,7.03
2023-03-25T01:51:24.619Z,7.09
2023-03-25T01:53:57.154Z,7.16
2023-03-25T01:56:38.271Z,7.20
2023-03-25T01:59:10.393Z,7.23
2023-03-25T02:01:37.837Z,7.32
2023-03-25T02:06:58.453Z,7.38
2023-03-25T02:09:27.382Z,7.34
2023-03-25T02:11:57.168Z,7.32
2023-03-25T02:14:36.899Z,7.21
2023-03-25T02:17:31.519Z,7.21
2023-03-25T02:20:54.396Z,7.16
2023-03-25T02:24:23.165Z,7.09
2023-03-25T02:27:27.380Z,6.99
2023-03-25T02:31:00.915Z,6.99
2023-03-25T02:34:42.587Z,6.97
2023-03-25T02:37:51.081Z,7.01
2023-03-25T02:40:47.464Z,7.03
2023-03-25T02:43:53.320Z,6.99
2023-03-25T02:46:30.313Z,6.97
2023-03-25T02:49:27.674Z,6.99
2023-03-25T02:52:18.342Z,6.96
2023-03-25T02:54:51.233Z,6.88
2023-03-25T02:57:23.124Z,6.88
2023-03-25T02:59:54.143Z,6.93
2023-03-25T03:02:32.483Z,6.99
2023-03-25T03:04:59.867Z,6.97
2023-03-25T03:07:47.320Z,6.93
2023-03-25T03:10:31.168Z,6.92
2023-03-25T03:13:34.008Z,6.94
2023-03-25T03:16:25.651Z,6.92
2023-03-25T03:19:33.170Z,6.92
2023-03-25T03:22:52.884Z,6.89
2023-03-25T03:25:53.937Z,6.86
2023-03-25T03:29:03.432Z,6.82
2023-03-25T03:32:06.019Z,6.80
2023-03-25T03:35:03.439Z,6.82
2023-03-25T03:38:11.414Z,6.77
2023-03-25T03:40:56.788Z,6.70
2023-03-25T03:43:47.909Z,6.70
2023-03-25T03:46:44.422Z,6.73
2023-03-25T03:49:24.019Z,6.69
2023-03-25T03:52:09.034Z,6.65
2023-03-25T03:55:03.595Z,6.73
2023-03-25T03:57:44.514Z,6.75
2023-03-25T04:00:31.668Z,6.78
2023-03-25T04:03:24.515Z,6.83
2023-03-25T04:06:10.108Z,6.84
2023-03-25T04:09:07.045Z,6.83
2023-03-25T04:11:50.547Z,6.90
2023-03-25T04:14:25.745Z,6.89
2023-03-25T04:16:55.969Z,6.88
2023-03-25T04:19:25.937Z,6.88
2023-03-25T04:21:55.995Z,6.91
2023-03-25T04:24:26.744Z,6.90
2023-03-25T04:27:03.806Z,6.86
2023-03-25T04:29:47.813Z,6.87
2023-03-25T04:32:24.157Z,6.86
2023-03-25T04:34:51.042Z,6.85
2023-03-25T04:37:24.054Z,6.82
2023-03-25T04:40:00.260Z,6.80
2023-03-25T04:42:32.609Z,6.77
2023-03-25T04:45:00.186Z,6.75
2023-03-25T04:47:28.230Z,6.75
2023-03-25T04:49:58.106Z,6.72
2023-03-25T04:52:34.596Z,6.71
2023-03-25T04:55:05.339Z,6.73
2023-03-25T04:57:32.790Z,6.70
2023-03-25T04:59:59.630Z,6.63
2023-03-25T05:02:27.877Z,6.56
2023-03-25T05:05:04.057Z,6.52
2023-03-25T05:07:33.262Z,6.45
2023-03-25T05:10:00.227Z,6.39
2023-03-25T05:12:27.357Z,6.32
2023-03-25T05:14:54.188Z,6.23
2023-03-25T05:17:20.941Z,6.17
2023-03-25T05:19:47.880Z,6.11
2023-03-25T05:22:23.339Z,6.08
2023-03-25T05:24:57.709Z,6.03
2023-03-25T05:27:28.632Z,6.01
2023-03-25T05:30:16.256Z,6.03
2023-03-25T05:32:45.787Z,6.01
2023-03-25T05:38:02.018Z,6.17
2023-03-25T05:40:28.941Z,6.19
2023-03-25T05:43:06.899Z,6.21
2023-03-25T05:45:43.532Z,6.27
2023-03-25T05:48:35.746Z,6.30
2023-03-25T05:51:15.931Z,6.35
2023-03-25T05:53:53.320Z,6.38
2023-03-25T05:56:29.576Z,6.43
2023-03-25T05:59:05.067Z,6.45
2023-03-25T06:01:42.366Z,6.48
2023-03-25T06:04:13.489Z,6.47
2023-03-25T06:06:43.566Z,6.46
2023-03-25T07:39:54.544Z,7.13
2023-03-25T07:42:30.576Z,7.01
2023-03-25T07:44:57.294Z,6.90
2023-03-25T07:47:36.065Z,6.81
2023-03-25T07:50:06.202Z,6.71
2023-03-25T07:52:33.050Z,6.85
2023-03-25T07:55:00.774Z,7.26
2023-03-25T07:57:30.610Z,7.42
2023-03-25T07:59:57.375Z,7.23
2023-03-25T08:02:37.168Z,6.97
2023-03-25T08:05:42.048Z,6.82
2023-03-25T08:08:09.942Z,6.99
2023-03-25T08:10:36.657Z,7.28
2023-03-25T08:13:12.318Z,7.33
2023-03-25T08:15:46.116Z,7.39
2023-03-25T08:18:13.418Z,7.49
2023-03-25T08:20:43.491Z,7.49
2023-03-25T08:23:10.625Z,7.57
2023-03-25T08:25:49.529Z,7.96
2023-03-25T08:28:27.054Z,8.22
2023-03-25T08:31:02.478Z,8.41
2023-03-25T08:33:34.482Z,8.38
2023-03-25T08:36:16.607Z,8.40
2023-03-25T08:38:48.281Z,8.80
2023-03-25T08:41:15.986Z,8.82
2023-03-25T08:43:46.433Z,8.72
2023-03-25T08:46:14.218Z,9.03
2023-03-25T08:48:49.582Z,8.85
2023-03-25T08:51:17.043Z,9.08
2023-03-25T08:53:49.286Z,9.12
2023-03-25T08:56:18.904Z,9.28
2023-03-25T08:58:45.741Z,9.03
2023-03-25T09:01:15.207Z,9.29
2023-03-25T09:03:44.885Z,9.27
2023-03-25T09:06:14.646Z,9.62
2023-03-25T09:08:50.456Z,10.11
2023-03-25T09:11:37.004Z,9.77
2023-03-25T09:14:05.212Z,9.50
2023-03-25T09:16:53.465Z,9.35
2023-03-25T09:19:20.201Z,8.98
2023-03-25T09:21:55.407Z,8.94
2023-03-25T09:24:35.963Z,8.74
2023-03-25T09:27:03.964Z,8.67
2023-03-25T09:29:32.566Z,8.60
2023-03-25T09:32:01.118Z,8.44
2023-03-25T09:34:28.710Z,8.53
2023-03-25T09:36:56.673Z,8.54
2023-03-25T09:39:32.470Z,8.51
2023-03-25T09:42:54.032Z,8.39
2023-03-25T09:45:50.266Z,8.35
2023-03-25T09:48:47.016Z,8.60
2023-03-25T09:51:35.930Z,9.06
2023-03-25T09:54:48.792Z,9.44
2023-03-25T09:57:27.221Z,10.11
2023-03-25T09:59:57.351Z,10.62
2023-03-25T10:02:51.109Z,10.66
2023-03-25T10:06:17.613Z,11.83
2023-03-25T10:09:34.568Z,11.56
2023-03-25T10:13:20.012Z,11.82
2023-03-25T10:16:20.950Z,11.13
2023-03-25T10:19:34.190Z,10.93
2023-03-25T10:22:44.613Z,10.92
2023-03-25T10:47:08.525Z,11.03
2023-03-25T10:49:44.130Z,11.23
2023-03-25T11:29:35.263Z,6.64
2023-03-25T12:07:23.266Z,8.55
2023-03-25T12:23:20.066Z,9.12
2023-03-25T12:26:14.544Z,8.70
2023-03-25T12:29:16.135Z,8.12
2023-03-25T12:36:06.738Z,7.55
2023-03-25T12:38:36.434Z,7.20
2023-03-25T12:41:30.021Z,7.06
2023-03-25T12:44:32.006Z,7.05
2023-03-25T12:47:27.208Z,7.00
2023-03-25T12:50:33.723Z,7.16
2023-03-25T12:53:38.441Z,7.14
2023-03-25T12:56:59.418Z,6.90
2023-03-25T12:59:53.871Z,6.63
2023-03-25T13:03:00.864Z,6.49
2023-03-25T13:05:58.338Z,6.47
2023-03-25T13:08:50.772Z,7.03
2023-03-25T13:12:23.301Z,7.26
2023-03-25T13:15:36.571Z,7.22
2023-03-25T13:18:23.874Z,7.32
2023-03-25T13:21:36.524Z,7.27
2023-03-25T13:24:27.355Z,7.41
2023-03-25T13:26:57.210Z,7.61
2023-03-25T13:29:46.499Z,7.87
2023-03-25T13:32:52.813Z,8.27
2023-03-25T13:36:05.829Z,8.66
2023-03-25T13:38:49.235Z,8.77
2023-03-25T13:41:52.098Z,8.85
2023-03-25T13:50:36.470Z,7.85
2023-03-25T13:56:35.632Z,7.57
2023-03-25T14:00:07.590Z,7.52
2023-03-25T14:25:57.662Z,9.38
2023-03-25T14:43:01.267Z,8.42
2023-03-25T15:06:42.095Z,10.11
2023-03-25T15:09:15.035Z,9.68
2023-03-25T15:12:00.418Z,9.04
2023-03-25T15:14:48.646Z,8.85
2023-03-25T15:17:45.996Z,8.68
2023-03-25T15:20:37.820Z,8.62
2023-03-25T15:23:59.555Z,8.65
2023-03-25T15:26:45.664Z,8.48
2023-03-25T15:30:21.392Z,8.50
2023-03-25T15:33:17.992Z,8.31
2023-03-25T15:37:00.086Z,8.12
2023-03-25T15:40:06.639Z,7.89
2023-03-25T15:43:05.429Z,7.72
2023-03-25T15:46:23.118Z,7.57
2023-03-25T15:49:23.330Z,7.47
2023-03-25T15:52:42.646Z,7.35
2023-03-25T15:55:28.074Z,7.19
2023-03-25T15:58:04.372Z,7.04
2023-03-25T16:00:57.908Z,6.92
2023-03-25T16:03:45.118Z,6.83
2023-03-25T16:06:18.253Z,6.76
2023-03-25T16:08:49.794Z,6.70
2023-03-25T16:11:22.485Z,6.76
2023-03-25T16:14:06.584Z,6.79
2023-03-25T16:16:54.536Z,6.77
2023-03-25T16:19:51.892Z,6.79
2023-03-25T16:22:33.221Z,6.75
2023-03-25T16:25:18.382Z,6.73
2023-03-25T16:27:55.886Z,6.62
2023-03-25T16:30:38.314Z,6.60
2023-03-25T16:33:07.944Z,6.57
2023-03-25T16:36:17.571Z,6.53
2023-03-25T16:38:44.564Z,6.51
2023-03-25T16:41:16.175Z,6.45
2023-03-25T16:43:46.063Z,6.45
2023-03-25T16:46:23.506Z,6.44
2023-03-25T16:48:57.219Z,6.40
2023-03-25T16:51:42.649Z,6.39
2023-03-25T16:54:36.105Z,6.36
2023-03-25T16:57:10.487Z,6.31
2023-03-25T16:59:50.954Z,6.31
2023-03-25T17:03:01.830Z,6.32
2023-03-25T17:06:19.430Z,6.31
2023-03-25T17:09:04.784Z,6.31
2023-03-25T17:11:33.303Z,6.29
2023-03-25T17:14:07.668Z,6.29
2023-03-25T17:16:42.042Z,6.31
2023-03-25T17:19:15.968Z,6.30
2023-03-25T17:22:06.141Z,6.25
2023-03-25T17:25:47.804Z,6.22
2023-03-25T17:28:58.038Z,6.21
2023-03-25T17:31:30.848Z,6.19
2023-03-25T17:34:47.050Z,6.16
2023-03-25T17:37:15.660Z,6.14
2023-03-25T17:39:51.075Z,6.12
2023-03-25T17:42:26.776Z,6.11
2023-03-25T17:44:54.062Z,6.09
2023-03-25T17:47:21.818Z,6.09
2023-03-25T17:49:51.212Z,6.07
2023-03-25T17:52:20.162Z,6.07
2023-03-25T17:54:47.095Z,6.06
2023-03-25T17:57:19.686Z,6.08
2023-03-25T17:59:55.645Z,6.07
2023-03-25T18:02:23.436Z,6.07
2023-03-25T18:04:53.263Z,6.07
2023-03-25T18:07:21.293Z,6.03
2023-03-25T18:09:59.706Z,6.03
2023-03-25T18:12:35.192Z,5.98
2023-03-25T18:15:13.729Z,5.96
2023-03-25T18:17:51.809Z,5.92
2023-03-25T18:20:28.637Z,5.91
2023-03-25T18:22:55.891Z,5.89
2023-03-25T18:25:23.947Z,5.90
2023-03-25T18:27:57.807Z,5.91
2023-03-25T18:30:55.829Z,5.90
2023-03-25T18:33:24.370Z,5.87
2023-03-25T18:35:56.250Z,5.87
2023-03-25T19:08:36.971Z,5.63
2023-03-25T19:57:33.908Z,5.37
2023-03-25T20:19:43.394Z,5.51
2023-03-25T20:49:22.290Z,5.68
2023-03-25T20:54:38.304Z,5.69
2023-03-25T20:57:10.502Z,5.70
2023-03-25T21:51:30.238Z,5.63
2023-03-25T21:56:46.983Z,5.63
2023-03-25T21:59:13.753Z,5.64
2023-03-25T22:01:45.595Z,5.61
2023-03-25T22:04:12.559Z,5.58
2023-03-25T22:06:42.238Z,5.57
2023-03-25T22:09:09.244Z,5.55
2023-03-25T22:11:42.020Z,5.55
2023-03-25T22:14:09.691Z,5.57
2023-03-25T22:16:37.812Z,5.56
2023-03-25T22:19:08.049Z,5.55
2023-03-25T22:21:37.508Z,5.57
2023-03-25T22:24:18.249Z,5.56
2023-03-25T22:26:48.123Z,5.56
2023-03-25T22:29:18.333Z,5.58
2023-03-25T22:31:50.800Z,5.62
2023-03-25T22:34:17.452Z,5.63
2023-03-25T22:36:52.863Z,5.66
2023-03-25T22:39:23.088Z,5.69
2023-03-25T22:41:50.527Z,5.67
2023-03-25T22:44:18.528Z,5.64
2023-03-25T22:46:59.560Z,5.67
2023-03-25T22:49:26.448Z,5.66
2023-03-25T22:51:54.077Z,5.66
2023-03-25T22:54:21.399Z,5.62
2023-03-25T22:56:48.666Z,5.59
2023-03-25T22:59:15.628Z,5.53
2023-03-25T23:01:48.804Z,5.53
2023-03-25T23:04:16.136Z,5.53
2023-03-25T23:07:00.512Z,5.52
2023-03-25T23:09:54.163Z,5.57
2023-03-25T23:12:25.577Z,5.58
2023-03-25T23:14:59.186Z,5.60
2023-03-25T23:17:28.574Z,5.59
2023-03-25T23:19:55.411Z,5.62
2023-03-25T23:22:22.199Z,5.65
2023-03-25T23:24:48.859Z,5.66
2023-03-25T23:27:18.498Z,5.63
2023-03-25T23:29:48.428Z,5.68
2023-03-25T23:32:16.427Z,5.66
2023-03-25T23:34:43.054Z,5.70
2023-03-25T23:37:12.105Z,5.72
2023-03-25T23:39:48.226Z,5.71
2023-03-25T23:42:14.894Z,5.72
2023-03-25T23:44:50.947Z,5.75
2023-03-25T23:47:17.638Z,5.78
2023-03-25T23:49:44.437Z,5.78
2023-03-25T23:52:13.953Z,5.78
2023-03-25T23:54:44.434Z,5.77
2023-03-25T23:57:12.539Z,5.78
2023-03-25T23:59:41.760Z,5.76
